ZLXY Airport Information

Runway Information
Runway 05 Length 9842 ft width 148 ft
Elevation 1562 ft Threshold 0 ft Heading 49
Runway 23 Length 9842 ft Width 148 ft
Elevation 1568 ft Threshold 0 ft Heading 229
Airport Frequencies
Type APP Name APP Frequency 119.6 MHZ
Type ATIS Name ATIS Frequency 127.45 MHZ
Type GND Name GND Frequency 121.8 MHZ
Type TWR Name TWR Frequency 124.3 MHZ
Airport Navaids
Type NDB Name Sanyuan Frequency 202 KHZ
Type VOR-DME Name Xianyang Frequency 115300 KHZ
Type NDB Name Yanzhuang Frequency 359 KHZ
Airport Weather Information & NOTAM
ADDS - METARS form results

(0155 UTC 23 January 2019)
Data provider http://aviationweather.gov/metar/data/
 
METAR text: ZLXY 230100Z 01001MPS 5000 BR NSC M05/M08 Q1023 NOSIG
Conditions at: ZLXY (XIANYANG , CN) observed 0100 UTC 23 January 2019
Temperature: -5.0°C (23°F)
Dewpoint: -8.0°C (18°F) [RH = 79%]
Pressure (altimeter): 30.21 inches Hg (1023.0 mb)
Winds: from the N (10 degrees) at 2 MPH (2 knots; 1.0 m/s)
Visibility: 3 miles ( 5 km)
Ceiling: at least 12,000 feet AGL
Clouds: sky clear below 12,000 feet AGL
Weather: BR  (mist)

Forecast for: ZLXY (XIANYANG , CN)
Text: TAF ZLXY 221912Z 2300/2324 06003MPS 3000 HZ NSC TX12/2308Z TNM10/00Z
Forecast period: 0000 UTC 23 January 2019 to 0000 UTC 24 January 2019
Forecast type: FROM: standard forecast or significant change
Winds: from the ENE (60 degrees) at 7 MPH (6 knots; 3.1 m/s)
Visibility: 1.86 miles (2.99 km)
Ceiling: unknown
Clouds: missing
Weather: HZ  (haze)